Westermuhlen — A8LA6 — position and weather

sailwx.info

Track history (hours):
 
Tides and Currents Weather Stations Pressure Air Temp Water Temp Dewpoint Dewpoint Depression Visibility Wind Speed Wind Dir Waves Ship Positions

Westermuhlen (Liberia)

Last reported at 2013-Aug-27 15:26 UTC. Time now 2014-Oct-26 00:23 UTC.
Position N 35°34' E 120°56'.
Warning: this ship's position is years out of date!

Length 167.2 m; beam 25 m; draft 9.8 m.

Type: Ship (hazmat cat B). MMSI: 636091239.

Date/timePositionNaut miles runAvg speedWind from/ knotsBaromVisibWave heightAir tempDewpointWater temp
2013-Aug-27 15:26N 35°34' E 120°56'4615945.7
2013-Aug-27 10:34N 38°10' E 024°51'1813.9
2013-Aug-27 09:17N 37°57' E 024°37'2414.1
2013-Aug-27 07:33N 37°34' E 024°26'1413.9
2013-Aug-27 06:33N 37°23' E 024°16'1414.2
2013-Aug-27 05:33N 37°09' E 024°10'1413.8
2013-Aug-27 04:34N 36°56' E 024°05'1413.6
2013-Aug-27 03:33N 36°44' E 023°58'1313.4
2013-Aug-27 02:33N 36°34' E 023°47'1413.5
2013-Aug-27 01:32N 36°23' E 023°35'41613.9
2013-Aug-25 19:33N 35°53' E 015°01'4955120.1
2013-Aug-24 02:18N 38°49' E 118°51'45462576.2
2013-Aug-24 00:32N 36°13' E 023°23'2713.6
2013-Aug-23 22:33N 36°33' E 023°45'46204624.2
2013-Aug-23 21:33N 38°36' E 120°53'1616.2
2013-Aug-23 20:33N 38°28' E 121°11'8220.5
2013-Aug-23 16:33N 37°42' E 122°37'45961075.6
2013-Aug-23 12:17N 38°38' E 025°11'1014.2
2013-Aug-23 11:33N 38°47' E 025°19'6 4.7
2013-Aug-23 10:15N 38°52' E 025°24'0 0.0
2013-Aug-23 09:27N 38°52' E 025°24'0 0.0
2013-Aug-23 08:32N 38°52' E 025°24'0 0.0
2013-Aug-23 06:25N 38°52' E 025°24'0 0.0
2013-Aug-23 04:18N 38°52' E 025°24'69 5.4
2013-Aug-22 15:33N 37°54' E 024°35'1312.6
2013-Aug-22 14:33N 37°42' E 024°30'1212.2
2013-Aug-22 13:33N 37°31' E 024°24'1312.8
2013-Aug-22 12:33N 37°21' E 024°14'1312.3
2013-Aug-22 11:32N 37°11' E 024°04'1212.1
2013-Aug-22 10:33N 37°00' E 023°59'1313.2
2013-Aug-22 09:33N 36°47' E 023°57'1313.2
2013-Aug-22 08:33N 36°34' E 023°56'1312.5
2013-Aug-22 07:33N 36°21' E 023°55'1212.2
2013-Aug-22 06:33N 36°09' E 023°53'1 0.2
2013-Aug-22 02:12N 36°09' E 023°54'1 1.9
2013-Aug-22 01:33N 36°10' E 023°53'2 1.7
2013-Aug-22 00:33N 36°11' E 023°52'2 1.6
2013-Aug-21 23:33N 36°13' E 023°51'5 1.2
2013-Aug-21 19:33N 36°17' E 023°49'4 4.5
2013-Aug-21 18:33N 36°16' E 023°43'1414.0
2013-Aug-21 17:33N 36°10' E 023°28'1514.5
2013-Aug-21 16:33N 36°02' E 023°12'1313.0
2013-Aug-21 15:33N 35°55' E 022°59'2912.8
2013-Aug-21 13:16N 35°53' E 022°23'32514.3
2013-Aug-20 14:28N 35°52' E 015°42'1514.7
2013-Aug-20 13:28N 35°52' E 015°24'52395730.6
2013-Aug-20 12:34N 22°19' E 114°06'52651744.4
2013-Aug-20 09:32N 35°52' E 014°53'0 0.0
2013-Aug-20 08:26N 35°52' E 014°53'0 0.0
2013-Aug-20 07:26N 35°52' E 014°53'0 0.0
2013-Aug-20 06:31N 35°52' E 014°53'0 0.0
2013-Aug-20 05:31N 35°52' E 014°53'0 0.0
2013-Aug-20 04:30N 35°52' E 014°53'0 0.0
2013-Aug-20 03:24N 35°52' E 014°53'0 0.0
2013-Aug-20 02:32N 35°52' E 014°53'0 0.0
2013-Aug-19 22:28N 35°52' E 014°53'52665723.6
2013-Aug-19 21:33N 22°18' E 114°06'52665135.9
2013-Aug-19 20:32N 35°52' E 014°53'0 0.0
2013-Aug-19 19:31N 35°52' E 014°53'0 0.0
2013-Aug-19 18:31N 35°52' E 014°53'0 0.1
2013-Aug-19 17:30N 35°52' E 014°53'0 0.0
2013-Aug-19 16:18N 35°52' E 014°53'0 0.1
2013-Aug-19 15:32N 35°52' E 014°53'0 0.0
2013-Aug-19 14:29N 35°52' E 014°53'0 0.0
2013-Aug-19 13:31N 35°52' E 014°53'0 0.0
2013-Aug-19 12:31N 35°52' E 014°53'0 0.0
2013-Aug-19 11:31N 35°52' E 014°53'0 0.0
2013-Aug-19 10:33N 35°52' E 014°53'0 0.0
2013-Aug-19 09:33N 35°52' E 014°53'0 0.0
2013-Aug-19 08:32N 35°52' E 014°53'0 0.0
2013-Aug-19 07:32N 35°52' E 014°53'0 0.0
2013-Aug-19 06:31N 35°52' E 014°53'0 0.0
2013-Aug-19 05:31N 35°52' E 014°53'0 0.0
2013-Aug-19 04:31N 35°52' E 014°53'0 0.0
2013-Aug-19 03:33N 35°52' E 014°53'0 0.0
2013-Aug-19 02:30N 35°52' E 014°53'0 0.0
2013-Aug-19 01:29N 35°52' E 014°53'0 0.0
2013-Aug-19 00:29N 35°52' E 014°53'0 0.0
2013-Aug-18 23:31N 35°52' E 014°53'0 0.0
2013-Aug-18 22:28N 35°52' E 014°53'0 0.0
2013-Aug-18 21:30N 35°52' E 014°53'0 0.0
2013-Aug-18 20:33N 35°52' E 014°53'0 0.0
2013-Aug-18 19:33N 35°52' E 014°53'0 0.0
2013-Aug-18 18:32N 35°52' E 014°53'0 0.0
2013-Aug-18 17:32N 35°52' E 014°53'0 0.1
2013-Aug-18 16:31N 35°52' E 014°53'0 0.0
2013-Aug-18 15:31N 35°52' E 014°53'0 0.0
2013-Aug-18 14:24N 35°52' E 014°53'0 0.0
2013-Aug-18 13:30N 35°52' E 014°53'0 0.0
2013-Aug-18 12:33N 35°52' E 014°53'0 0.0
2013-Aug-18 11:29N 35°52' E 014°53'0 0.0
2013-Aug-18 10:32N 35°52' E 014°53'0 0.0
2013-Aug-18 09:28N 35°52' E 014°53'0 0.0
2013-Aug-18 08:31N 35°52' E 014°53'0 0.0
2013-Aug-18 07:33N 35°52' E 014°53'0 0.0
2013-Aug-18 06:33N 35°52' E 014°53'0 0.0
2013-Aug-18 05:33N 35°52' E 014°53'0 0.0
2013-Aug-18 04:32N 35°52' E 014°53'0 0.0
2013-Aug-18 03:32N 35°52' E 014°53'0 0.0
2013-Aug-18 02:31N 35°52' E 014°53'0 0.0
2013-Aug-18 01:31N 35°52' E 014°53'0 0.0
2013-Aug-18 00:33N 35°52' E 014°53'0 0.0
2013-Aug-17 23:33N 35°52' E 014°53'0 0.0
2013-Aug-17 22:33N 35°52' E 014°53'0 0.0
2013-Aug-17 21:32N 35°52' E 014°53'0 0.0
2013-Aug-17 20:29N 35°52' E 014°53'0 0.1
2013-Aug-17 19:28N 35°52' E 014°53'0 0.0
2013-Aug-17 18:28N 35°52' E 014°53'0 0.0
2013-Aug-17 17:30N 35°52' E 014°53'0 0.0
2013-Aug-17 16:33N 35°52' E 014°53'0 0.1
2013-Aug-17 15:32N 35°52' E 014°53'  
Track history (hours):
 
Tides and Currents Weather Stations Pressure Air Temp Water Temp Dewpoint Dewpoint Depression Visibility Wind Speed Wind Dir Waves Ship Positions

Westermuhlen (Liberia)

Last reported at 2013-Aug-27 15:26 UTC. Time now 2014-Oct-26 00:23 UTC.
Position N 35°34' E 120°56'.
Warning: this ship's position is years out of date!

Length 167.2 m; beam 25 m; draft 9.8 m.

Type: Ship (hazmat cat B). MMSI: 636091239.

Date/timePositionNaut miles runAvg speedWind from/ knotsBaromVisibWave heightAir tempDewpointWater temp
2013-Aug-27 15:26N 35°34' E 120°56'4615945.7
2013-Aug-27 10:34N 38°10' E 024°51'1813.9
2013-Aug-27 09:17N 37°57' E 024°37'2414.1
2013-Aug-27 07:33N 37°34' E 024°26'1413.9
2013-Aug-27 06:33N 37°23' E 024°16'1414.2
2013-Aug-27 05:33N 37°09' E 024°10'1413.8
2013-Aug-27 04:34N 36°56' E 024°05'1413.6
2013-Aug-27 03:33N 36°44' E 023°58'1313.4
2013-Aug-27 02:33N 36°34' E 023°47'1413.5
2013-Aug-27 01:32N 36°23' E 023°35'41613.9
2013-Aug-25 19:33N 35°53' E 015°01'4955120.1
2013-Aug-24 02:18N 38°49' E 118°51'45462576.2
2013-Aug-24 00:32N 36°13' E 023°23'2713.6
2013-Aug-23 22:33N 36°33' E 023°45'46204624.2
2013-Aug-23 21:33N 38°36' E 120°53'1616.2
2013-Aug-23 20:33N 38°28' E 121°11'8220.5
2013-Aug-23 16:33N 37°42' E 122°37'45961075.6
2013-Aug-23 12:17N 38°38' E 025°11'1014.2
2013-Aug-23 11:33N 38°47' E 025°19'6 4.7
2013-Aug-23 10:15N 38°52' E 025°24'0 0.0
2013-Aug-23 09:27N 38°52' E 025°24'0 0.0
2013-Aug-23 08:32N 38°52' E 025°24'0 0.0
2013-Aug-23 06:25N 38°52' E 025°24'0 0.0
2013-Aug-23 04:18N 38°52' E 025°24'69 5.4
2013-Aug-22 15:33N 37°54' E 024°35'1312.6
2013-Aug-22 14:33N 37°42' E 024°30'1212.2
2013-Aug-22 13:33N 37°31' E 024°24'1312.8
2013-Aug-22 12:33N 37°21' E 024°14'1312.3
2013-Aug-22 11:32N 37°11' E 024°04'1212.1
2013-Aug-22 10:33N 37°00' E 023°59'1313.2
2013-Aug-22 09:33N 36°47' E 023°57'1313.2
2013-Aug-22 08:33N 36°34' E 023°56'1312.5
2013-Aug-22 07:33N 36°21' E 023°55'1212.2
2013-Aug-22 06:33N 36°09' E 023°53'1 0.2
2013-Aug-22 02:12N 36°09' E 023°54'1 1.9
2013-Aug-22 01:33N 36°10' E 023°53'2 1.7
2013-Aug-22 00:33N 36°11' E 023°52'2 1.6
2013-Aug-21 23:33N 36°13' E 023°51'5 1.2
2013-Aug-21 19:33N 36°17' E 023°49'4 4.5
2013-Aug-21 18:33N 36°16' E 023°43'1414.0
2013-Aug-21 17:33N 36°10' E 023°28'1514.5
2013-Aug-21 16:33N 36°02' E 023°12'1313.0
2013-Aug-21 15:33N 35°55' E 022°59'2912.8
2013-Aug-21 13:16N 35°53' E 022°23'32514.3
2013-Aug-20 14:28N 35°52' E 015°42'1514.7
2013-Aug-20 13:28N 35°52' E 015°24'52395730.6
2013-Aug-20 12:34N 22°19' E 114°06'52651744.4
2013-Aug-20 09:32N 35°52' E 014°53'0 0.0
2013-Aug-20 08:26N 35°52' E 014°53'0 0.0
2013-Aug-20 07:26N 35°52' E 014°53'0 0.0
2013-Aug-20 06:31N 35°52' E 014°53'0 0.0
2013-Aug-20 05:31N 35°52' E 014°53'0 0.0
2013-Aug-20 04:30N 35°52' E 014°53'0 0.0
2013-Aug-20 03:24N 35°52' E 014°53'0 0.0
2013-Aug-20 02:32N 35°52' E 014°53'0 0.0
2013-Aug-19 22:28N 35°52' E 014°53'52665723.6
2013-Aug-19 21:33N 22°18' E 114°06'52665135.9
2013-Aug-19 20:32N 35°52' E 014°53'0 0.0
2013-Aug-19 19:31N 35°52' E 014°53'0 0.0
2013-Aug-19 18:31N 35°52' E 014°53'0 0.1
2013-Aug-19 17:30N 35°52' E 014°53'0 0.0
2013-Aug-19 16:18N 35°52' E 014°53'0 0.1
2013-Aug-19 15:32N 35°52' E 014°53'0 0.0
2013-Aug-19 14:29N 35°52' E 014°53'0 0.0
2013-Aug-19 13:31N 35°52' E 014°53'0 0.0
2013-Aug-19 12:31N 35°52' E 014°53'0 0.0
2013-Aug-19 11:31N 35°52' E 014°53'0 0.0
2013-Aug-19 10:33N 35°52' E 014°53'0 0.0
2013-Aug-19 09:33N 35°52' E 014°53'0 0.0
2013-Aug-19 08:32N 35°52' E 014°53'0 0.0
2013-Aug-19 07:32N 35°52' E 014°53'0 0.0
2013-Aug-19 06:31N 35°52' E 014°53'0 0.0
2013-Aug-19 05:31N 35°52' E 014°53'0 0.0
2013-Aug-19 04:31N 35°52' E 014°53'0 0.0
2013-Aug-19 03:33N 35°52' E 014°53'0 0.0
2013-Aug-19 02:30N 35°52' E 014°53'0 0.0
2013-Aug-19 01:29N 35°52' E 014°53'0 0.0
2013-Aug-19 00:29N 35°52' E 014°53'0 0.0
2013-Aug-18 23:31N 35°52' E 014°53'0 0.0
2013-Aug-18 22:28N 35°52' E 014°53'0 0.0
2013-Aug-18 21:30N 35°52' E 014°53'0 0.0
2013-Aug-18 20:33N 35°52' E 014°53'0 0.0
2013-Aug-18 19:33N 35°52' E 014°53'0 0.0
2013-Aug-18 18:32N 35°52' E 014°53'0 0.0
2013-Aug-18 17:32N 35°52' E 014°53'0 0.1
2013-Aug-18 16:31N 35°52' E 014°53'0 0.0
2013-Aug-18 15:31N 35°52' E 014°53'0 0.0
2013-Aug-18 14:24N 35°52' E 014°53'0 0.0
2013-Aug-18 13:30N 35°52' E 014°53'0 0.0
2013-Aug-18 12:33N 35°52' E 014°53'0 0.0
2013-Aug-18 11:29N 35°52' E 014°53'0 0.0
2013-Aug-18 10:32N 35°52' E 014°53'0 0.0
2013-Aug-18 09:28N 35°52' E 014°53'0 0.0
2013-Aug-18 08:31N 35°52' E 014°53'0 0.0
2013-Aug-18 07:33N 35°52' E 014°53'0 0.0
2013-Aug-18 06:33N 35°52' E 014°53'0 0.0
2013-Aug-18 05:33N 35°52' E 014°53'0 0.0
2013-Aug-18 04:32N 35°52' E 014°53'0 0.0
2013-Aug-18 03:32N 35°52' E 014°53'0 0.0
2013-Aug-18 02:31N 35°52' E 014°53'0 0.0
2013-Aug-18 01:31N 35°52' E 014°53'0 0.0
2013-Aug-18 00:33N 35°52' E 014°53'0 0.0
2013-Aug-17 23:33N 35°52' E 014°53'0 0.0
2013-Aug-17 22:33N 35°52' E 014°53'0 0.0
2013-Aug-17 21:32N 35°52' E 014°53'0 0.0
2013-Aug-17 20:29N 35°52' E 014°53'0 0.1
2013-Aug-17 19:28N 35°52' E 014°53'0 0.0
2013-Aug-17 18:28N 35°52' E 014°53'0 0.0
2013-Aug-17 17:30N 35°52' E 014°53'0 0.0
2013-Aug-17 16:33N 35°52' E 014°53'0 0.1
2013-Aug-17 15:32N 35°52' E 014°53'  

Dump ship's entire track history